createdAt,value
2023-08-13T00:01:15.117Z,21.21
2023-08-13T00:03:42.913Z,21.23
2023-08-13T00:06:10.586Z,21.25
2023-08-13T00:08:38.165Z,21.34
2023-08-13T00:11:13.238Z,21.45
2023-08-13T00:13:41.824Z,21.54
2023-08-13T00:16:11.771Z,21.54
2023-08-13T00:18:39.570Z,21.48
2023-08-13T00:21:07.412Z,21.36
2023-08-13T00:23:35.381Z,21.23
2023-08-13T00:26:03.747Z,21.13
2023-08-13T00:28:31.966Z,21.06
2023-08-13T00:31:00.825Z,20.98
2023-08-13T00:33:28.595Z,20.90
2023-08-13T00:35:56.497Z,20.86
2023-08-13T00:38:24.166Z,20.85
2023-08-13T00:40:51.908Z,20.87
2023-08-13T00:43:19.477Z,20.82
2023-08-13T00:45:47.439Z,20.77
2023-08-13T00:48:15.200Z,20.71
2023-08-13T00:50:45.235Z,20.67
2023-08-13T00:53:13.370Z,20.78
2023-08-13T00:55:41.227Z,20.91
2023-08-13T00:58:08.939Z,20.96
2023-08-13T01:00:36.576Z,20.96
2023-08-13T01:03:04.367Z,20.87
2023-08-13T01:05:42.955Z,20.81
2023-08-13T01:08:23.804Z,20.76
2023-08-13T01:11:02.936Z,20.63
2023-08-13T01:13:43.789Z,20.57
2023-08-13T01:16:12.977Z,20.47
2023-08-13T01:18:41.839Z,20.45
2023-08-13T01:21:09.455Z,20.46
2023-08-13T01:23:37.199Z,20.49
2023-08-13T01:26:20.305Z,20.46
2023-08-13T01:29:00.764Z,20.43
2023-08-13T01:31:36.805Z,20.37
2023-08-13T01:34:05.531Z,20.30
2023-08-13T01:36:34.308Z,20.27
2023-08-13T01:39:02.661Z,20.23
2023-08-13T01:41:46.235Z,20.19
2023-08-13T01:44:17.071Z,20.18
2023-08-13T01:46:45.179Z,20.17
2023-08-13T01:49:13.155Z,20.16
2023-08-13T01:51:41.179Z,20.13
2023-08-13T01:54:09.044Z,20.12
2023-08-13T01:56:38.716Z,20.11
2023-08-13T01:59:06.693Z,20.13
2023-08-13T02:01:34.780Z,20.16
2023-08-13T02:04:04.253Z,20.22
2023-08-13T02:06:38.180Z,20.27
2023-08-13T02:09:08.157Z,20.33
2023-08-13T02:11:43.838Z,20.36
2023-08-13T02:14:24.249Z,20.33
2023-08-13T02:16:53.572Z,20.31
2023-08-13T02:19:21.576Z,20.34
2023-08-13T02:21:49.368Z,20.34
2023-08-13T02:24:19.276Z,20.39
2023-08-13T02:26:46.969Z,20.50
2023-08-13T02:29:14.599Z,20.58
2023-08-13T02:31:42.333Z,20.69
2023-08-13T02:34:09.996Z,20.78
2023-08-13T02:36:38.230Z,20.84
2023-08-13T02:39:05.778Z,20.85
2023-08-13T02:41:33.353Z,20.84
2023-08-13T02:44:18.741Z,20.89
2023-08-13T02:47:36.557Z,21.05
2023-08-13T02:50:07.946Z,21.18
2023-08-13T02:53:11.364Z,21.30
2023-08-13T02:56:45.150Z,21.44
2023-08-13T03:00:46.929Z,21.58
2023-08-13T03:02:51.460Z,21.70
2023-08-13T03:05:19.253Z,21.76
2023-08-13T03:07:47.143Z,21.88
2023-08-13T03:10:14.691Z,21.98
2023-08-13T03:12:42.464Z,22.12
2023-08-13T03:15:10.250Z,22.24
2023-08-13T03:17:39.012Z,22.26
2023-08-13T03:20:07.221Z,22.30
2023-08-13T03:22:35.041Z,22.29
2023-08-13T03:25:03.811Z,22.35
2023-08-13T03:27:31.774Z,22.35
2023-08-13T03:29:59.309Z,22.42
2023-08-13T03:32:27.409Z,22.44
2023-08-13T03:34:55.122Z,22.51
2023-08-13T03:37:22.877Z,22.53
2023-08-13T03:39:50.920Z,22.55
2023-08-13T03:42:18.582Z,22.59
2023-08-13T03:44:46.296Z,22.65
2023-08-13T03:47:19.844Z,22.77
2023-08-13T03:49:48.921Z,22.91
2023-08-13T03:52:16.852Z,22.92
2023-08-13T03:54:44.804Z,23.04
2023-08-13T03:57:12.395Z,23.16
2023-08-13T03:59:40.247Z,23.31
2023-08-13T04:02:09.519Z,23.55
2023-08-13T04:04:37.302Z,23.78
2023-08-13T04:07:10.260Z,24.03
2023-08-13T04:09:38.710Z,24.19
2023-08-13T04:12:07.341Z,24.35
2023-08-13T04:40:04.091Z,25.76
2023-08-13T04:42:34.306Z,25.76
2023-08-13T04:45:02.207Z,25.62
2023-08-13T04:47:31.463Z,25.55
2023-08-13T04:49:59.167Z,25.31
2023-08-13T04:52:26.826Z,25.05
2023-08-13T04:54:54.778Z,24.94
2023-08-13T04:57:24.372Z,25.06
2023-08-13T04:59:52.984Z,25.20
2023-08-13T05:02:22.349Z,25.45
2023-08-13T05:04:49.874Z,25.69
2023-08-13T05:07:18.141Z,25.86
2023-08-13T05:09:45.979Z,25.89
2023-08-13T05:12:14.045Z,25.67
2023-08-13T05:14:42.005Z,25.44
2023-08-13T05:17:27.985Z,25.24
2023-08-13T05:19:55.752Z,25.11
2023-08-13T05:22:23.439Z,25.07
2023-08-13T05:24:51.088Z,25.14
2023-08-13T05:27:18.929Z,25.29
2023-08-13T05:29:46.726Z,25.23
2023-08-13T05:32:15.099Z,25.09
2023-08-13T05:34:43.041Z,25.14
2023-08-13T05:37:10.993Z,25.41
2023-08-13T05:39:39.758Z,25.67
2023-08-13T05:42:07.516Z,25.81
2023-08-13T05:44:35.255Z,25.91
2023-08-13T05:47:03.465Z,25.97
2023-08-13T05:49:32.463Z,26.13
2023-08-13T05:52:00.413Z,26.31
2023-08-13T05:54:28.082Z,26.49
2023-08-13T05:56:55.691Z,26.58
2023-08-13T05:59:23.665Z,26.71
2023-08-13T06:01:51.481Z,26.73
2023-08-13T06:04:19.253Z,26.79
2023-08-13T06:06:46.832Z,26.87
2023-08-13T06:09:14.457Z,26.76
2023-08-13T06:11:42.038Z,26.37
2023-08-13T06:14:09.427Z,26.08
2023-08-13T06:16:37.058Z,25.78
2023-08-13T06:19:04.692Z,25.45
2023-08-13T06:21:32.275Z,25.30
2023-08-13T06:23:59.973Z,25.19
2023-08-13T06:26:27.551Z,25.14
2023-08-13T06:28:55.030Z,25.23
2023-08-13T06:31:36.493Z,25.27
2023-08-13T06:34:09.431Z,25.46
2023-08-13T06:36:36.837Z,25.55
2023-08-13T06:39:05.052Z,25.49
2023-08-13T06:41:32.679Z,25.49
2023-08-13T06:44:04.633Z,25.40
2023-08-13T06:46:32.333Z,25.49
2023-08-13T06:49:00.068Z,25.71
2023-08-13T06:51:27.727Z,25.84
2023-08-13T06:53:55.345Z,25.95
2023-08-13T06:56:22.996Z,25.86
2023-08-13T06:58:50.614Z,25.80
2023-08-13T07:01:18.117Z,25.72
2023-08-13T07:03:45.895Z,25.64
2023-08-13T07:06:13.459Z,25.45
2023-08-13T07:08:41.146Z,25.27
2023-08-13T07:11:09.045Z,25.12
2023-08-13T07:13:45.905Z,25.18
2023-08-13T07:16:15.158Z,25.21
2023-08-13T07:18:43.574Z,25.31
2023-08-13T07:21:15.374Z,25.51
2023-08-13T07:23:43.678Z,25.62
2023-08-13T07:26:11.297Z,25.91
2023-08-13T07:28:41.704Z,26.08
2023-08-13T07:31:11.114Z,26.18
2023-08-13T07:34:04.433Z,26.25
2023-08-13T07:36:32.521Z,26.19
2023-08-13T07:40:18.237Z,26.12
2023-08-13T07:42:50.115Z,26.00
2023-08-13T07:45:18.049Z,25.79
2023-08-13T07:47:45.845Z,25.50
2023-08-13T07:50:15.563Z,25.14
2023-08-13T07:52:43.769Z,24.86
2023-08-13T07:55:11.789Z,24.64
2023-08-13T07:57:39.321Z,24.58
2023-08-13T08:00:09.393Z,24.44
2023-08-13T08:02:41.159Z,24.19
2023-08-13T08:05:10.387Z,24.05
2023-08-13T08:07:38.779Z,24.00
2023-08-13T08:10:07.766Z,24.17
2023-08-13T08:12:35.561Z,24.61
2023-08-13T08:15:04.470Z,24.77
2023-08-13T08:17:32.873Z,24.70
2023-08-13T08:20:01.526Z,24.49
2023-08-13T08:22:33.867Z,24.16
2023-08-13T08:25:01.911Z,23.76
2023-08-13T08:27:31.081Z,23.49
2023-08-13T15:50:19.233Z,21.99
2023-08-13T15:52:52.239Z,21.97
2023-08-13T15:55:22.805Z,21.91
2023-08-13T15:57:53.431Z,21.79
2023-08-13T16:00:33.134Z,21.74
2023-08-13T16:03:10.605Z,21.64
2023-08-13T16:05:57.050Z,21.53
2023-08-13T16:08:31.829Z,21.49
2023-08-13T16:11:25.986Z,21.43
2023-08-13T16:14:03.039Z,21.29
2023-08-13T16:16:31.396Z,21.25
2023-08-13T16:19:00.012Z,21.21
2023-08-13T16:21:27.952Z,21.19
2023-08-13T16:24:08.752Z,21.16
2023-08-13T16:26:37.044Z,21.15
2023-08-13T16:29:06.310Z,21.14
2023-08-13T16:31:34.186Z,21.13
2023-08-13T16:34:04.482Z,21.11
2023-08-13T16:36:34.485Z,21.06
2023-08-13T16:39:02.326Z,21.10
2023-08-13T16:41:30.197Z,21.13
2023-08-13T16:44:00.589Z,21.14
2023-08-13T16:46:28.998Z,21.14
2023-08-13T16:48:56.779Z,21.13
2023-08-13T16:51:25.580Z,21.15
2023-08-13T16:53:53.652Z,21.17
2023-08-13T16:56:23.974Z,21.18
2023-08-13T16:58:52.878Z,21.21
2023-08-13T17:01:20.932Z,21.22
2023-08-13T17:03:48.703Z,21.16
2023-08-13T17:06:17.030Z,21.13
2023-08-13T17:08:46.292Z,21.08
2023-08-13T17:11:16.114Z,21.09
2023-08-13T17:13:44.902Z,21.13
2023-08-13T17:16:12.799Z,21.10
2023-08-13T17:18:45.510Z,21.00
2023-08-13T17:21:13.412Z,20.92
2023-08-13T17:23:46.305Z,20.86
2023-08-13T17:26:13.995Z,20.78
2023-08-13T19:50:03.749Z,20.69
2023-08-13T19:52:33.443Z,20.61
2023-08-13T19:55:01.183Z,20.49
2023-08-13T19:57:39.436Z,20.41
2023-08-13T20:00:11.264Z,20.37
